createdAt,value
2023-03-21T00:02:33.659Z,2.28
2023-03-21T00:07:39.003Z,2.00
2023-03-21T00:12:42.968Z,2.58
2023-03-21T00:17:50.859Z,1.60
2023-03-21T00:22:56.337Z,1.48
2023-03-21T00:28:08.469Z,0.80
2023-03-21T00:33:22.364Z,1.80
2023-03-21T00:38:31.098Z,5.63
2023-03-21T00:43:35.355Z,5.55
2023-03-21T00:48:39.343Z,4.43
2023-03-21T00:53:50.551Z,3.87
2023-03-21T00:58:54.568Z,2.63
2023-03-21T01:04:03.694Z,2.90
2023-03-21T01:09:12.853Z,1.77
2023-03-21T01:14:23.012Z,2.30
2023-03-21T01:19:44.335Z,1.98
2023-03-21T01:24:58.608Z,1.75
2023-03-21T01:30:18.987Z,1.80
2023-03-21T01:35:23.989Z,1.38
2023-03-21T01:40:33.603Z,3.17
2023-03-21T01:46:51.431Z,1.48
2023-03-21T01:52:37.977Z,3.45
2023-03-21T01:58:05.407Z,2.22
2023-03-21T02:03:29.498Z,2.10
2023-03-21T02:08:50.292Z,1.45
2023-03-21T02:14:05.686Z,3.20
2023-03-21T02:19:52.937Z,2.38
2023-03-21T02:25:29.407Z,3.83
2023-03-21T02:30:52.404Z,3.28
2023-03-21T02:36:27.017Z,3.58
2023-03-21T02:41:40.551Z,3.03
2023-03-21T02:46:59.746Z,2.58
2023-03-21T02:52:17.081Z,3.10
2023-03-21T02:57:40.082Z,2.60
2023-03-21T03:02:50.612Z,3.08
2023-03-21T03:08:07.885Z,1.52
2023-03-21T03:13:25.694Z,2.42
2023-03-21T03:18:37.884Z,3.15
2023-03-21T03:23:46.141Z,3.38
2023-03-21T03:28:53.699Z,5.03
2023-03-21T03:34:02.315Z,6.68
2023-03-21T03:39:10.879Z,2.55
2023-03-21T03:44:20.386Z,3.13
2023-03-21T03:49:38.104Z,2.58
2023-03-21T03:54:45.330Z,4.20
2023-03-21T03:59:55.154Z,1.40
2023-03-21T04:05:23.450Z,2.17
2023-03-21T04:10:27.462Z,1.58
2023-03-21T04:15:32.975Z,3.33
2023-03-21T04:20:48.704Z,1.77
2023-03-21T04:25:57.093Z,2.43
2023-03-21T04:36:39.069Z,2.97
2023-03-21T04:41:47.027Z,1.92
2023-03-21T04:46:52.576Z,1.48
2023-03-21T04:51:56.566Z,4.45
2023-03-21T04:57:00.672Z,5.15
2023-03-21T05:02:06.265Z,5.70
2023-03-21T05:07:10.557Z,5.75
2023-03-21T05:12:14.500Z,7.85
2023-03-21T05:17:23.333Z,13.95
2023-03-21T05:22:29.205Z,6.45
2023-03-21T05:27:36.466Z,5.93
2023-03-21T05:32:48.637Z,4.68
2023-03-21T05:37:53.265Z,4.10
2023-03-21T05:42:59.116Z,5.35
2023-03-21T05:48:05.003Z,5.28
2023-03-21T05:53:15.379Z,4.95
2023-03-21T05:58:19.579Z,3.22
2023-03-21T06:03:28.430Z,6.07
2023-03-21T06:08:40.295Z,3.72
2023-03-21T06:13:44.303Z,3.92
2023-03-21T06:18:49.805Z,4.70
2023-03-21T06:24:04.885Z,5.07
2023-03-21T06:29:08.936Z,2.53
2023-03-21T06:34:14.447Z,6.65
2023-03-21T06:39:18.475Z,3.70
2023-03-21T06:44:23.204Z,4.95
2023-03-21T06:49:37.570Z,7.00
2023-03-21T06:54:46.443Z,2.15
2023-03-21T06:59:53.076Z,1.57
2023-03-21T07:05:01.285Z,2.03
2023-03-21T07:10:08.992Z,3.20
2023-03-21T07:15:28.839Z,2.88
2023-03-21T07:20:34.383Z,3.22
2023-03-21T07:25:57.215Z,2.78
2023-03-21T07:31:04.111Z,2.22
2023-03-21T07:36:12.654Z,4.13
2023-03-21T07:46:28.038Z,6.82
2023-03-21T07:51:35.418Z,4.05
2023-03-21T07:56:39.366Z,4.07
2023-03-21T08:01:43.481Z,3.75
2023-03-21T08:06:48.846Z,3.95
2023-03-21T08:11:52.869Z,2.78
2023-03-21T08:16:56.861Z,3.15
2023-03-21T08:22:02.443Z,2.45
2023-03-21T08:27:06.817Z,6.60
2023-03-21T08:32:11.121Z,2.22
2023-03-21T08:37:16.633Z,2.20
2023-03-21T08:42:21.605Z,2.10
2023-03-21T08:47:25.734Z,5.80
2023-03-21T08:57:38.346Z,4.15
2023-03-21T09:02:42.936Z,2.67
2023-03-21T09:07:49.760Z,2.47
2023-03-21T09:12:55.842Z,3.03
2023-03-21T09:18:13.068Z,2.88
2023-03-21T09:28:22.429Z,3.50
2023-03-21T09:33:27.363Z,4.07
2023-03-21T09:38:36.738Z,1.95
2023-03-21T09:43:52.500Z,2.42
2023-03-21T09:49:00.323Z,7.30
2023-03-21T09:54:10.269Z,2.38
2023-03-21T09:59:23.713Z,2.28
2023-03-21T10:04:27.836Z,2.08
2023-03-21T10:09:34.912Z,1.33
2023-03-21T10:14:43.123Z,2.00
2023-03-21T10:19:48.348Z,2.75
2023-03-21T10:24:53.670Z,1.38
2023-03-21T10:29:57.602Z,1.52
2023-03-21T10:35:26.160Z,1.40
2023-03-21T10:40:33.555Z,1.35
2023-03-21T10:45:38.513Z,1.50
2023-03-21T10:50:43.779Z,1.50
2023-03-21T10:55:52.354Z,2.08
2023-03-21T11:00:59.349Z,1.38
2023-03-21T11:06:06.932Z,2.13
2023-03-21T11:11:21.679Z,1.73
2023-03-21T11:16:31.372Z,1.77
2023-03-21T11:21:38.640Z,1.77
2023-03-21T11:26:45.609Z,1.35
2023-03-21T11:31:49.953Z,1.25
2023-03-21T11:37:02.727Z,1.60
2023-03-21T11:42:23.335Z,1.33
2023-03-21T11:47:27.231Z,1.67
2023-03-21T11:52:41.640Z,1.45
2023-03-21T11:58:05.266Z,1.58
2023-03-21T12:03:54.753Z,1.83
2023-03-21T12:09:11.236Z,1.60
2023-03-21T12:14:25.742Z,2.37
2023-03-21T12:19:49.521Z,1.45
2023-03-21T12:24:56.763Z,1.83
2023-03-21T12:30:15.086Z,1.80
2023-03-21T12:35:32.616Z,1.33
2023-03-21T12:41:01.898Z,1.70
2023-03-21T12:46:15.105Z,2.55
2023-03-21T12:51:22.309Z,1.40
2023-03-21T12:56:31.228Z,1.08
2023-03-21T13:01:40.221Z,1.40
2023-03-21T13:06:47.175Z,1.65
2023-03-21T13:11:57.014Z,3.03
2023-03-21T13:17:05.581Z,1.60
2023-03-21T13:22:17.445Z,1.70
2023-03-21T13:27:29.665Z,2.00
2023-03-21T13:32:40.159Z,1.75
2023-03-21T13:37:51.501Z,1.92
2023-03-21T13:42:59.610Z,2.15
2023-03-21T13:48:07.841Z,1.52
2023-03-21T13:53:31.936Z,1.63
2023-03-21T13:58:39.152Z,1.38
2023-03-21T14:03:46.529Z,4.35
2023-03-21T14:13:55.757Z,2.55
2023-03-21T14:19:04.988Z,1.83
2023-03-21T14:24:13.962Z,3.05
2023-03-21T14:29:26.404Z,3.25
2023-03-21T14:34:36.384Z,2.10
2023-03-21T14:39:44.534Z,1.30
2023-03-21T14:44:55.399Z,2.63
2023-03-21T14:50:02.205Z,2.05
2023-03-21T14:55:15.001Z,3.33
2023-03-21T15:00:28.510Z,2.70
2023-03-21T15:05:37.479Z,1.73
2023-03-21T15:10:42.011Z,2.45
2023-03-21T15:15:46.525Z,1.67
2023-03-21T15:20:53.519Z,2.90
2023-03-21T15:31:51.315Z,5.22
2023-03-21T15:37:00.270Z,4.53
2023-03-21T15:42:27.554Z,2.72
2023-03-21T15:47:42.001Z,3.15
2023-03-21T15:52:50.209Z,3.25
2023-03-21T15:57:56.360Z,2.85
2023-03-21T16:03:06.513Z,3.92
2023-03-21T16:08:23.184Z,4.78
2023-03-21T16:13:27.154Z,2.87
2023-03-21T16:18:32.088Z,3.78
2023-03-21T16:23:37.450Z,2.95
2023-03-21T16:28:41.398Z,2.97
2023-03-21T16:33:45.867Z,3.15
2023-03-21T16:38:52.771Z,3.33
2023-03-21T16:43:56.756Z,4.57
2023-03-21T16:49:00.744Z,4.68
2023-03-21T16:54:06.646Z,6.45
2023-03-21T16:59:13.561Z,7.47
2023-03-21T17:04:19.253Z,6.47
2023-03-21T17:09:28.028Z,5.55
2023-03-21T17:14:32.004Z,5.00
2023-03-21T17:19:35.990Z,6.00
2023-03-21T17:24:41.444Z,4.30
2023-03-21T17:29:45.988Z,4.38
2023-03-21T17:34:53.134Z,8.13
2023-03-21T17:39:58.626Z,5.03
2023-03-21T17:45:02.664Z,6.25
2023-03-21T17:50:14.631Z,4.82
2023-03-21T17:55:21.484Z,4.50
2023-03-21T18:00:28.933Z,3.57
2023-03-21T18:10:39.373Z,5.72
2023-03-21T18:15:44.673Z,2.25
2023-03-21T18:20:53.045Z,4.38
2023-03-21T18:25:59.929Z,2.70
2023-03-21T18:31:17.364Z,2.53
2023-03-21T18:36:27.847Z,4.78
2023-03-21T18:41:35.298Z,6.70
2023-03-21T18:46:47.020Z,7.47
2023-03-21T18:51:51.389Z,7.32
2023-03-21T19:02:22.696Z,5.55
2023-03-21T19:07:27.033Z,5.43
2023-03-21T19:12:32.643Z,3.67
2023-03-21T19:23:00.655Z,3.45
2023-03-21T19:28:06.346Z,5.28
2023-03-21T19:33:10.269Z,4.72
2023-03-21T19:38:14.337Z,3.90
2023-03-21T19:48:50.315Z,2.95
2023-03-21T19:53:54.424Z,2.47
2023-03-21T19:59:01.315Z,4.05
2023-03-21T20:04:05.678Z,3.95
2023-03-21T20:09:49.793Z,4.20
2023-03-21T20:14:37.149Z,2.17
2023-03-21T20:19:43.774Z,3.42
2023-03-21T20:24:48.642Z,4.93
2023-03-21T20:30:09.048Z,4.90
2023-03-21T20:35:29.579Z,3.88
2023-03-21T20:40:41.045Z,2.22
2023-03-21T20:45:46.461Z,3.47
2023-03-21T20:50:57.213Z,5.40
2023-03-21T20:56:05.706Z,3.30
2023-03-21T21:01:15.683Z,4.05
2023-03-21T21:06:40.365Z,4.40
2023-03-21T21:17:30.686Z,5.60
2023-03-21T21:22:34.312Z,4.20
2023-03-21T21:27:38.344Z,3.60
2023-03-21T21:32:43.781Z,3.58
2023-03-21T21:37:47.733Z,1.75
2023-03-21T21:42:51.746Z,2.20
2023-03-21T21:47:57.734Z,2.75
2023-03-21T21:53:03.885Z,2.03
2023-03-21T21:58:08.553Z,0.93
2023-03-21T22:03:15.064Z,0.90
2023-03-21T22:08:23.092Z,1.23
2023-03-21T22:13:27.544Z,1.17
2023-03-21T22:18:36.108Z,1.27
2023-03-21T22:23:41.601Z,1.92
2023-03-21T22:28:45.610Z,0.77
2023-03-21T22:33:50.983Z,1.08
2023-03-21T22:38:54.997Z,0.90
2023-03-21T22:43:58.953Z,1.00
2023-03-21T22:49:06.050Z,1.05
2023-03-21T22:54:11.110Z,1.45
2023-03-21T22:59:15.110Z,1.27
2023-03-21T23:04:20.690Z,1.25
2023-03-21T23:09:25.108Z,1.20
2023-03-21T23:14:30.170Z,1.35
2023-03-21T23:19:35.855Z,4.90
2023-03-21T23:24:40.096Z,4.35
2023-03-21T23:29:45.441Z,2.85
2023-03-21T23:34:50.868Z,3.05
2023-03-21T23:39:55.516Z,1.95
2023-03-21T23:45:01.525Z,1.45
2023-03-21T23:50:09.832Z,1.25
2023-03-21T23:55:14.069Z,1.95
